TimeMST,TemperatureF,Dew PointF,Humidity,Sea Level PressureIn,VisibilityMPH,Wind Direction,Wind SpeedMPH,Gust SpeedMPH,PrecipitationIn,Events,Conditions,WindDirDegrees,DateUTC
12:53 AM,28.0,24.1,85,30.38,10.0,WNW,8.1,-,N/A,,Clear,300,2013-01-06 07:53:00
1:53 AM,30.0,25.0,82,30.38,10.0,WNW,9.2,-,N/A,,Clear,300,2013-01-06 08:53:00
2:53 AM,28.4,24.8,86,30.39,10.0,NW,5.8,-,N/A,,Clear,310,2013-01-06 09:53:00
3:53 AM,28.9,24.1,82,30.39,10.0,NW,9.2,-,N/A,,Clear,310,2013-01-06 10:53:00
4:53 AM,28.4,21.2,74,30.40,10.0,NW,9.2,-,N/A,,Clear,310,2013-01-06 11:53:00
5:53 AM,28.0,19.9,72,30.42,10.0,NW,8.1,-,N/A,,Clear,310,2013-01-06 12:53:00
6:53 AM,26.1,19.0,75,30.45,10.0,WNW,5.8,-,N/A,,Clear,290,2013-01-06 13:53:00
7:53 AM,30.0,21.9,72,30.46,10.0,NW,5.8,-,N/A,,Clear,310,2013-01-06 14:53:00
8:53 AM,35.1,23.0,61,30.45,10.0,NW,6.9,-,N/A,,Clear,320,2013-01-06 15:53:00
9:53 AM,37.9,21.9,53,30.45,10.0,North,6.9,-,N/A,,Clear,10,2013-01-06 16:53:00
10:53 AM,41.0,21.9,47,30.42,10.0,Calm,Calm,-,N/A,,Clear,0,2013-01-06 17:53:00
11:53 AM,43.0,24.1,47,30.37,10.0,NNE,4.6,-,N/A,,Clear,20,2013-01-06 18:53:00
12:53 PM,44.1,24.1,45,30.33,10.0,Calm,Calm,-,N/A,,Clear,0,2013-01-06 19:53:00
1:53 PM,46.0,24.1,42,30.28,10.0,SE,6.9,-,N/A,,Clear,130,2013-01-06 20:53:00
2:53 PM,48.0,23.0,37,30.26,10.0,SSE,6.9,-,N/A,,Clear,150,2013-01-06 21:53:00
3:53 PM,46.0,21.9,39,30.25,10.0,SSE,10.4,-,N/A,,Clear,160,2013-01-06 22:53:00
4:53 PM,42.1,26.1,53,30.26,10.0,SSE,6.9,-,N/A,,Clear,150,2013-01-06 23:53:00
5:53 PM,37.0,26.1,65,30.26,10.0,SSE,8.1,-,N/A,,Clear,160,2013-01-07 00:53:00
6:53 PM,34.0,25.0,70,30.28,10.0,South,5.8,-,N/A,,Clear,180,2013-01-07 01:53:00
7:53 PM,35.1,25.0,67,30.25,10.0,South,6.9,-,N/A,,Clear,190,2013-01-07 02:53:00
8:53 PM,34.0,26.1,73,30.24,10.0,South,6.9,-,N/A,,Clear,190,2013-01-07 03:53:00
9:53 PM,36.0,25.0,64,30.22,10.0,SSE,4.6,-,N/A,,Clear,160,2013-01-07 04:53:00
10:53 PM,37.0,26.1,65,30.20,10.0,South,11.5,-,N/A,,Clear,180,2013-01-07 05:53:00
11:53 PM,33.1,26.1,75,30.19,10.0,SSW,6.9,-,N/A,,Clear,200,2013-01-07 06:53:00